Time;durP1;ratioP1;P1;durP2;ratioP2;P2;SDS_P1;SDS_P2;PMS_P1;PMS_P2;Temp;Humidity;BMP_temperature;BMP_pressure;BME280_temperature;BME280_humidity;BME280_pressure;Samples;Min_cycle;Max_cycle;Signal;HPM_P1;HPM_P2
2024/03/30 00:00:04;;;;;;;2.45;1.50;;;;;;;12.06;100.00;99593.41;5045912;28;20441;-70
2024/03/30 00:02:58;;;;;;;2.45;1.67;;;;;;;12.04;100.00;99595.63;5071056;28;20517;-71
2024/03/30 00:05:45;;;;;;;1.42;1.30;;;;;;;12.00;100.00;99600.09;5088903;28;20052;-71
2024/03/30 00:08:32;;;;;;;4.35;1.67;;;;;;;11.97;100.00;99595.25;5091316;28;20093;-70
2024/03/30 00:11:20;;;;;;;2.15;1.30;;;;;;;11.96;100.00;99599.13;5070340;28;20056;-70
2024/03/30 00:14:07;;;;;;;1.92;1.40;;;;;;;11.96;100.00;99593.66;5098040;28;20047;-70
2024/03/30 00:16:54;;;;;;;1.80;1.30;;;;;;;11.92;100.00;99599.72;5071281;28;20076;-69
2024/03/30 00:19:43;;;;;;;1.50;1.13;;;;;;;11.92;100.00;99602.44;5069593;28;20046;-70
2024/03/30 00:22:30;;;;;;;2.00;1.60;;;;;;;11.91;100.00;99608.22;5106060;27;20054;-70
2024/03/30 00:25:20;;;;;;;2.28;1.27;;;;;;;11.88;100.00;99596.00;5090156;27;20039;-71
2024/03/30 00:28:07;;;;;;;2.63;1.45;;;;;;;11.90;100.00;99601.13;5118528;27;20054;-71
2024/03/30 00:30:54;;;;;;;2.70;1.58;;;;;;;11.87;100.00;99590.84;5103279;27;20526;-70
2024/03/30 00:33:41;;;;;;;3.10;1.40;;;;;;;11.88;100.00;99586.97;5089913;28;20046;-70
2024/03/30 00:36:28;;;;;;;2.17;1.52;;;;;;;11.89;100.00;99567.56;5078255;28;20556;-70
2024/03/30 00:39:15;;;;;;;3.08;1.58;;;;;;;11.88;100.00;99552.31;5077693;28;20044;-70
2024/03/30 00:42:02;;;;;;;2.75;1.77;;;;;;;11.90;100.00;99554.72;5082320;28;20050;-70
2024/03/30 00:44:49;;;;;;;2.10;1.67;;;;;;;11.90;100.00;99555.53;5064052;28;20416;-70
2024/03/30 00:47:36;;;;;;;1.63;1.52;;;;;;;11.91;100.00;99554.44;5076739;28;20423;-70
2024/03/30 00:50:23;;;;;;;2.67;1.50;;;;;;;11.91;100.00;99540.78;5084002;28;20083;-70
2024/03/30 00:53:10;;;;;;;2.78;1.75;;;;;;;11.89;100.00;99545.75;5097320;28;20061;-70
2024/03/30 00:56:00;;;;;;;1.75;1.48;;;;;;;11.88;100.00;99537.84;5097029;28;20500;-70
2024/03/30 00:58:47;;;;;;;2.92;1.58;;;;;;;11.86;100.00;99529.97;5097206;28;20043;-70
2024/03/30 01:01:34;;;;;;;2.35;1.70;;;;;;;11.86;100.00;99529.97;5076686;28;20543;-70
2024/03/30 01:04:21;;;;;;;4.90;1.63;;;;;;;11.86;100.00;99523.69;5101851;27;20407;-71
2024/03/30 01:07:08;;;;;;;1.90;1.33;;;;;;;11.83;100.00;99524.28;5117841;27;20074;-70
2024/03/30 01:09:55;;;;;;;2.40;1.70;;;;;;;11.81;100.00;99516.44;5051285;28;20048;-71
2024/03/30 01:12:43;;;;;;;4.60;1.88;;;;;;;11.78;100.00;99506.13;5046792;28;20080;-69
2024/03/30 01:15:31;;;;;;;2.35;1.55;;;;;;;11.79;100.00;99507.75;5056516;28;20521;-70
2024/03/30 01:18:18;;;;;;;3.95;1.80;;;;;;;11.78;100.00;99497.13;5073828;28;20122;-72
2024/03/30 01:21:05;;;;;;;3.35;1.60;;;;;;;11.78;100.00;99495.19;5056609;28;20147;-70
2024/03/30 01:23:53;;;;;;;2.30;1.73;;;;;;;11.78;100.00;99487.00;5076161;28;20162;-70
2024/03/30 01:26:57;;;;;;;3.05;1.55;;;;;;;11.77;100.00;99488.13;5062947;28;20048;-70
2024/03/30 01:29:44;;;;;;;1.65;1.27;;;;;;;11.72;100.00;99486.34;5063005;28;20059;-71
2024/03/30 01:32:35;;;;;;;3.55;2.10;;;;;;;11.73;100.00;99492.59;5038995;28;20044;-70
2024/03/30 01:35:22;;;;;;;1.75;1.58;;;;;;;11.72;100.00;99496.44;5062990;28;20477;-71
2024/03/30 01:38:09;;;;;;;3.08;1.80;;;;;;;11.72;100.00;99491.00;5074870;28;20044;-70
2024/03/30 01:40:57;;;;;;;4.57;2.20;;;;;;;11.71;100.00;99503.84;5063858;28;20089;-70
2024/03/30 01:43:44;;;;;;;2.53;2.10;;;;;;;11.72;100.00;99507.38;5066723;28;20523;-70
2024/03/30 01:46:33;;;;;;;5.20;2.60;;;;;;;11.71;100.00;99498.38;5066404;28;20043;-70
2024/03/30 01:49:21;;;;;;;3.30;2.20;;;;;;;11.72;100.00;99499.97;5082947;28;20048;-71
2024/03/30 01:52:08;;;;;;;3.05;2.08;;;;;;;11.73;100.00;99508.97;5084351;28;20133;-71
2024/03/30 01:54:55;;;;;;;3.45;2.08;;;;;;;11.71;100.00;99501.09;5048997;28;20051;-70
2024/03/30 01:57:43;;;;;;;4.07;1.70;;;;;;;11.71;100.00;99500.28;5037516;28;20059;-71
2024/03/30 02:00:30;;;;;;;2.47;1.70;;;;;;;11.73;100.00;99487.13;5077354;28;20119;-70
2024/03/30 02:03:22;;;;;;;1.95;1.50;;;;;;;11.65;100.00;99490.59;5064226;28;20048;-69
2024/03/30 02:06:10;;;;;;;3.33;1.65;;;;;;;11.59;100.00;99480.91;5076626;28;20109;-71
2024/03/30 02:08:57;;;;;;;3.38;1.80;;;;;;;11.52;100.00;99479.44;5064347;28;20056;-71
2024/03/30 02:11:44;;;;;;;3.05;1.73;;;;;;;11.50;100.00;99484.38;5074930;28;20170;-70
2024/03/30 02:14:31;;;;;;;4.82;2.55;;;;;;;11.50;100.00;99478.13;5064749;28;20093;-71
2024/03/30 02:17:18;;;;;;;2.78;1.83;;;;;;;11.49;100.00;99477.28;5065352;28;20040;-70
2024/03/30 02:20:06;;;;;;;2.75;1.85;;;;;;;11.43;100.00;99478.53;5045453;28;20048;-70
2024/03/30 02:22:54;;;;;;;3.60;2.10;;;;;;;11.41;100.00;99480.75;5060191;28;20044;-69
2024/03/30 02:25:41;;;;;;;3.33;2.10;;;;;;;11.41;100.00;99485.41;5051669;28;20140;-71
2024/03/30 02:28:29;;;;;;;2.90;1.60;;;;;;;11.42;100.00;99498.72;5077893;28;20080;-70
2024/03/30 02:31:16;;;;;;;2.50;1.90;;;;;;;11.44;100.00;99507.41;5079361;28;20122;-71
2024/03/30 02:34:03;;;;;;;2.17;1.98;;;;;;;11.47;100.00;99503.25;5060903;28;20083;-71
2024/03/30 02:36:51;;;;;;;4.22;2.20;;;;;;;11.48;100.00;99502.97;5066601;28;20097;-71
2024/03/30 02:39:38;;;;;;;2.83;2.03;;;;;;;11.47;100.00;99509.56;5044349;28;20105;-70
2024/03/30 02:42:25;;;;;;;1.92;1.73;;;;;;;11.47;100.00;99517.72;5049064;28;20504;-71
2024/03/30 02:45:12;;;;;;;4.97;2.25;;;;;;;11.49;100.00;99515.47;5052728;28;20087;-70
2024/03/30 02:47:59;;;;;;;2.10;1.63;;;;;;;11.50;100.00;99511.66;5042572;28;20037;-70
2024/03/30 02:50:46;;;;;;;2.60;1.83;;;;;;;11.42;100.00;99498.72;5033922;28;20174;-70
2024/03/30 02:53:33;;;;;;;1.77;1.55;;;;;;;11.30;100.00;99496.56;5088609;28;20048;-70
2024/03/30 02:56:21;;;;;;;3.38;2.00;;;;;;;11.25;100.00;99501.28;5064518;28;20056;-70
2024/03/30 02:59:08;;;;;;;4.05;2.00;;;;;;;11.22;100.00;99488.28;5038862;28;20043;-70
2024/03/30 03:01:55;;;;;;;3.33;2.00;;;;;;;11.20;100.00;99485.03;5064498;28;20079;-70
2024/03/30 03:04:42;;;;;;;2.05;1.95;;;;;;;11.19;100.00;99477.97;5079049;28;20130;-69
2024/03/30 03:07:29;;;;;;;1.80;1.70;;;;;;;11.18;100.00;99465.44;5064640;28;20151;-70
2024/03/30 03:10:17;;;;;;;3.33;2.10;;;;;;;11.19;100.00;99456.19;5038212;28;20040;-69
2024/03/30 03:13:04;;;;;;;5.22;2.50;;;;;;;11.20;100.00;99457.78;5051493;28;20082;-70
2024/03/30 03:15:51;;;;;;;2.72;2.22;;;;;;;11.20;100.00;99457.78;5078347;28;20072;-70
2024/03/30 03:18:39;;;;;;;3.55;2.35;;;;;;;11.18;100.00;99460.00;5092898;28;20076;-70
2024/03/30 03:21:26;;;;;;;4.15;2.47;;;;;;;11.15;100.00;99453.25;5077977;28;20048;-70
2024/03/30 03:24:14;;;;;;;3.53;2.30;;;;;;;11.14;100.00;99453.56;5078788;28;20442;-70
2024/03/30 03:27:01;;;;;;;5.20;2.58;;;;;;;11.14;100.00;99453.56;5093324;28;20048;-70
2024/03/30 03:29:48;;;;;;;2.58;2.00;;;;;;;11.11;100.00;99443.25;5092748;28;20059;-70
2024/03/30 03:32:35;;;;;;;5.05;2.35;;;;;;;11.08;100.00;99448.19;5050675;28;20419;-70
2024/03/30 03:35:22;;;;;;;3.90;2.10;;;;;;;11.11;100.00;99465.06;5078987;28;20055;-70
2024/03/30 03:38:10;;;;;;;5.90;2.42;;;;;;;11.15;100.00;99460.63;5051112;28;20047;-71
2024/03/30 03:40:57;;;;;;;5.50;2.70;;;;;;;11.17;100.00;99469.31;5051681;28;20078;-70
2024/03/30 03:43:44;;;;;;;5.35;2.50;;;;;;;11.17;100.00;99463.84;5092204;28;20075;-70
2024/03/30 03:46:32;;;;;;;2.58;2.22;;;;;;;11.12;100.00;99462.03;5059421;28;20086;-70
2024/03/30 03:49:19;;;;;;;2.85;2.35;;;;;;;11.09;100.00;99457.19;5064044;28;20527;-70
2024/03/30 03:52:06;;;;;;;3.25;2.28;;;;;;;11.02;100.00;99460.34;5050836;28;20087;-70
2024/03/30 03:54:53;;;;;;;2.88;2.30;;;;;;;10.98;100.00;99456.59;5078631;28;20051;-70
2024/03/30 03:57:40;;;;;;;3.55;2.30;;;;;;;10.93;100.00;99443.06;5077887;28;20052;-70
2024/03/30 04:00:27;;;;;;;3.65;2.30;;;;;;;10.89;100.00;99450.22;5063767;28;20052;-70
2024/03/30 04:03:15;;;;;;;3.25;2.33;;;;;;;10.86;100.00;99454.38;5078397;28;20055;-70
2024/03/30 04:06:12;;;;;;;3.05;2.45;;;;;;;10.82;100.00;99449.84;5077666;28;20076;-70
2024/03/30 04:09:01;;;;;;;4.22;2.25;;;;;;;10.82;100.00;99449.84;5059962;28;20052;-70
2024/03/30 04:11:48;;;;;;;4.57;2.60;;;;;;;10.85;100.00;99441.06;5059048;28;20090;-71
2024/03/30 04:14:35;;;;;;;3.15;2.35;;;;;;;10.85;100.00;99454.69;5030063;28;20045;-70
2024/03/30 04:17:22;;;;;;;2.70;2.30;;;;;;;10.76;100.00;99448.34;5030769;28;20070;-70
2024/03/30 04:20:10;;;;;;;4.43;2.53;;;;;;;10.71;100.00;99441.06;5044613;28;20049;-70
2024/03/30 04:22:57;;;;;;;2.70;2.20;;;;;;;10.73;100.00;99441.56;5031789;28;20070;-69
2024/03/30 04:25:44;;;;;;;3.67;2.40;;;;;;;10.73;100.00;99438.06;5057092;28;20052;-70
2024/03/30 04:28:32;;;;;;;3.90;2.60;;;;;;;10.72;100.00;99436.41;5048904;28;20473;-70
2024/03/30 04:31:19;;;;;;;4.70;2.75;;;;;;;10.72;100.00;99434.50;5043445;28;20098;-72
2024/03/30 04:34:06;;;;;;;4.05;2.80;;;;;;;10.71;100.00;99434.81;5049869;28;20044;-69
2024/03/30 04:36:53;;;;;;;5.68;2.70;;;;;;;10.69;100.00;99431.59;5059281;28;20063;-71
2024/03/30 04:39:41;;;;;;;5.68;2.80;;;;;;;10.71;100.00;99426.66;5058122;28;20082;-70
2024/03/30 04:42:29;;;;;;;3.72;2.50;;;;;;;10.70;100.00;99414.91;5064108;28;20048;-70
2024/03/30 04:45:16;;;;;;;4.15;2.78;;;;;;;10.63;100.00;99407.19;5048127;28;20048;-69
2024/03/30 04:48:03;;;;;;;3.65;2.47;;;;;;;10.52;100.00;99410.41;5043568;28;20055;-70
2024/03/30 04:50:50;;;;;;;3.50;2.60;;;;;;;10.52;100.00;99408.47;5051469;28;20076;-71
2024/03/30 04:53:37;;;;;;;4.95;2.85;;;;;;;10.50;100.00;99391.63;5049984;28;20055;-70
2024/03/30 04:56:24;;;;;;;4.20;2.80;;;;;;;10.49;100.00;99392.75;5063339;28;20051;-69
2024/03/30 04:59:11;;;;;;;4.70;3.20;;;;;;;10.48;100.00;99377.50;5061293;28;20071;-70
2024/03/30 05:01:58;;;;;;;4.43;2.90;;;;;;;10.44;100.00;99376.53;5062513;28;20133;-70
2024/03/30 05:04:45;;;;;;;4.15;2.90;;;;;;;10.40;100.00;99380.94;5062851;28;20087;-70
2024/03/30 05:07:32;;;;;;;4.30;3.00;;;;;;;10.33;100.00;99380.53;5066838;28;20126;-70
2024/03/30 05:10:19;;;;;;;3.90;3.00;;;;;;;10.34;100.00;99376.69;5109441;28;20040;-67
2024/03/30 05:13:06;;;;;;;5.15;3.38;;;;;;;10.24;100.00;99374.94;5110932;28;20055;-70
2024/03/30 05:15:53;;;;;;;5.13;3.33;;;;;;;10.29;100.00;99374.06;5082749;28;20085;-71
2024/03/30 05:18:40;;;;;;;5.57;3.10;;;;;;;10.28;100.00;99364.28;5110238;28;20067;-71
2024/03/30 05:21:27;;;;;;;4.88;3.00;;;;;;;10.24;100.00;99359.41;5110372;28;20388;-70
2024/03/30 05:24:14;;;;;;;5.57;3.10;;;;;;;10.20;100.00;99361.16;5108945;28;20047;-70
2024/03/30 05:27:01;;;;;;;5.03;3.20;;;;;;;10.17;100.00;99356.31;5109912;28;20051;-70
2024/03/30 05:29:48;;;;;;;5.60;3.30;;;;;;;10.16;100.00;99357.41;5089748;28;20040;-70
2024/03/30 05:32:35;;;;;;;6.47;3.25;;;;;;;10.09;100.00;99350.75;5063242;28;20071;-70
2024/03/30 05:35:22;;;;;;;5.47;3.08;;;;;;;10.09;100.00;99348.03;5091598;28;20412;-69
2024/03/30 05:38:09;;;;;;;4.78;3.28;;;;;;;10.06;100.00;99344.00;5076584;28;20492;-69
2024/03/30 05:40:56;;;;;;;4.75;3.30;;;;;;;10.09;100.00;99339.88;5079642;28;20035;-70
2024/03/30 05:43:43;;;;;;;6.45;3.08;;;;;;;10.03;100.00;99342.69;5069674;28;20047;-70
2024/03/30 05:46:30;;;;;;;5.32;3.13;;;;;;;10.07;100.00;99328.47;5082482;28;20440;-70
2024/03/30 05:49:18;;;;;;;4.28;3.03;;;;;;;10.08;100.00;99330.91;5075511;28;20036;-70
2024/03/30 05:52:05;;;;;;;4.72;3.40;;;;;;;10.06;100.00;99330.38;5049495;28;20524;-70
2024/03/30 05:54:52;;;;;;;4.68;3.47;;;;;;;9.94;100.00;99324.63;5061920;28;20055;-70
2024/03/30 05:57:42;;;;;;;6.70;3.42;;;;;;;9.90;100.00;99326.34;5065084;28;20067;-70
2024/03/30 06:00:30;;;;;;;5.47;3.47;;;;;;;9.98;100.00;99328.34;5080181;28;20067;-72
2024/03/30 06:03:17;;;;;;;5.85;3.28;;;;;;;10.09;100.00;99326.25;5066320;28;20048;-70
2024/03/30 06:06:04;;;;;;;5.10;3.22;;;;;;;10.14;100.00;99329.69;5054027;28;20385;-70
2024/03/30 06:08:51;;;;;;;6.18;3.70;;;;;;;10.19;100.00;99332.28;5095699;28;20083;-71
2024/03/30 06:11:38;;;;;;;5.05;3.53;;;;;;;10.14;100.00;99329.69;5086685;28;20069;-70
2024/03/30 06:14:25;;;;;;;8.25;3.85;;;;;;;10.15;100.00;99331.31;5115849;28;20090;-70
2024/03/30 06:17:13;;;;;;;6.00;3.53;;;;;;;10.18;100.00;99324.44;5054915;28;20128;-72
2024/03/30 06:20:00;;;;;;;6.00;3.80;;;;;;;10.15;100.00;99325.88;5054433;28;20036;-71
2024/03/30 06:22:47;;;;;;;6.25;3.90;;;;;;;10.11;100.00;99321.31;5061534;28;20134;-71
2024/03/30 06:25:34;;;;;;;5.80;3.80;;;;;;;10.08;100.00;99336.34;5057596;28;20048;-72
2024/03/30 06:28:21;;;;;;;6.28;3.97;;;;;;;10.14;100.00;99335.13;5066633;28;20082;-70
2024/03/30 06:31:08;;;;;;;6.97;3.95;;;;;;;10.21;100.00;99335.53;5081632;28;20048;-71
2024/03/30 06:33:55;;;;;;;5.35;3.53;;;;;;;10.21;100.00;99342.91;5094498;28;20075;-72
2024/03/30 06:36:42;;;;;;;6.40;3.83;;;;;;;10.19;100.00;99347.81;5079065;28;20082;-71
2024/03/30 06:43:40;;;;;;;6.90;4.22;;;;;;;10.12;100.00;99347.41;5093168;28;20156;-71
2024/03/30 06:45:41;;;;;;;6.00;3.50;;;;;;;10.24;100.00;99337.63;5085309;28;20047;-69
2024/03/30 06:48:28;;;;;;;6.78;4.13;;;;;;;10.29;100.00;99336.75;5085758;28;20127;-70
2024/03/30 06:51:15;;;;;;;7.78;4.40;;;;;;;10.32;100.00;99324.47;5083018;28;20044;-71
2024/03/30 06:54:03;;;;;;;8.63;4.80;;;;;;;10.29;100.00;99327.78;5082213;28;20035;-71
2024/03/30 06:56:50;;;;;;;7.15;4.75;;;;;;;10.30;100.00;99322.06;5105017;28;20047;-71
2024/03/30 06:59:37;;;;;;;7.03;4.65;;;;;;;10.30;100.00;99326.69;5093276;28;20052;-70
2024/03/30 07:02:24;;;;;;;7.53;4.90;;;;;;;10.29;100.00;99320.44;5093266;28;20583;-71
2024/03/30 07:05:11;;;;;;;7.25;4.88;;;;;;;10.27;100.00;99314.47;5090187;28;20135;-71
2024/03/30 07:07:58;;;;;;;8.90;5.40;;;;;;;10.27;100.00;99316.38;5084008;28;20066;-71
2024/03/30 07:10:45;;;;;;;10.68;5.60;;;;;;;10.26;100.00;99326.47;5100185;28;20054;-71
2024/03/30 07:13:32;;;;;;;10.32;5.78;;;;;;;10.23;100.00;99316.97;5085702;28;20561;-71
2024/03/30 07:16:19;;;;;;;8.65;6.18;;;;;;;10.24;100.00;99317.78;5097374;28;20402;-70
2024/03/30 07:19:06;;;;;;;10.77;6.13;;;;;;;10.21;100.00;99312.94;5085736;28;20130;-70
2024/03/30 07:21:53;;;;;;;10.27;7.20;;;;;;;10.21;100.00;99313.75;5071983;28;20047;-72
2024/03/30 07:24:40;;;;;;;10.15;6.70;;;;;;;10.17;100.00;99318.22;5068488;28;20043;-71
2024/03/30 07:27:27;;;;;;;12.68;7.00;;;;;;;10.14;100.00;99316.06;5085953;28;20040;-71
2024/03/30 07:30:14;;;;;;;9.25;6.32;;;;;;;10.21;100.00;99324.63;5068211;28;20476;-70
2024/03/30 07:33:01;;;;;;;10.35;6.60;;;;;;;10.28;100.00;99309.84;5084470;28;20126;-70
2024/03/30 07:35:55;;;;;;;10.05;6.57;;;;;;;10.29;100.00;99304.09;5057739;28;20458;-70
2024/03/30 07:38:42;;;;;;;8.82;6.03;;;;;;;10.30;100.00;99305.72;5069616;28;20089;-71
2024/03/30 07:41:29;;;;;;;9.85;5.82;;;;;;;10.34;100.00;99303.19;5083966;27;20086;-71
2024/03/30 07:44:18;;;;;;;9.80;6.35;;;;;;;10.34;100.00;99297.75;5089345;28;20471;-71
2024/03/30 07:47:07;;;;;;;10.18;6.55;;;;;;;10.33;100.00;99287.97;5045216;28;20039;-71
2024/03/30 07:49:54;;;;;;;10.70;5.55;;;;;;;10.32;100.00;99283.63;5057454;28;20089;-71
2024/03/30 07:52:40;;;;;;;9.55;5.80;;;;;;;10.33;100.00;99277.09;5084105;28;20083;-71
2024/03/30 07:55:27;;;;;;;9.88;6.22;;;;;;;10.40;100.00;99282.94;5065016;28;20043;-71
2024/03/30 07:58:15;;;;;;;9.40;6.40;;;;;;;10.42;100.00;99281.50;5082852;28;20074;-70
2024/03/30 08:01:04;;;;;;;8.75;6.00;;;;;;;10.43;100.00;99294.00;5098346;28;20118;-70
2024/03/30 08:03:51;;;;;;;9.77;6.13;;;;;;;10.49;100.00;99281.09;5071814;28;20093;-71
2024/03/30 08:06:38;;;;;;;11.23;6.20;;;;;;;10.56;100.00;99291.56;5092026;28;20079;-70
2024/03/30 08:09:25;;;;;;;10.23;6.60;;;;;;;10.60;100.00;99279.75;5084562;28;20087;-70
2024/03/30 08:12:12;;;;;;;9.85;6.38;;;;;;;10.66;100.00;99269.56;5079751;28;20051;-71
2024/03/30 08:14:59;;;;;;;9.48;6.30;;;;;;;10.70;100.00;99259.66;5083979;28;20044;-70
2024/03/30 08:17:46;;;;;;;10.02;6.30;;;;;;;10.70;100.00;99256.13;5098290;28;20537;-71
2024/03/30 08:20:33;;;;;;;10.68;6.55;;;;;;;10.69;100.00;99255.31;5083611;28;20047;-70
2024/03/30 08:23:22;;;;;;;12.63;6.75;;;;;;;10.75;100.00;99258.72;5084021;28;20170;-71
2024/03/30 08:26:08;;;;;;;12.05;6.60;;;;;;;10.78;100.00;99244.50;5078232;28;20040;-69
2024/03/30 08:28:55;;;;;;;10.10;6.80;;;;;;;10.77;100.00;99248.34;5045202;28;20047;-70
2024/03/30 08:31:42;;;;;;;12.70;6.60;;;;;;;10.78;100.00;99249.97;5064172;28;20044;-70
2024/03/30 08:34:29;;;;;;;14.95;7.07;;;;;;;10.76;100.00;99252.97;5080565;28;20108;-71
2024/03/30 08:37:16;;;;;;;10.52;6.60;;;;;;;10.75;100.00;99243.22;5082435;28;20438;-70
2024/03/30 08:40:04;;;;;;;9.90;6.05;;;;;;;10.73;100.00;99247.38;5062229;28;20067;-71
2024/03/30 08:42:51;;;;;;;9.52;6.53;;;;;;;10.75;100.00;99254.13;5066336;28;20530;-72
2024/03/30 08:45:38;;;;;;;12.50;6.85;;;;;;;10.81;100.00;99249.34;5076962;28;20436;-70
2024/03/30 08:48:25;;;;;;;10.07;6.78;;;;;;;10.87;100.00;99248.09;5069143;28;20048;-70
2024/03/30 08:51:12;;;;;;;11.60;7.03;;;;;;;10.95;100.00;99250.09;5068055;28;20503;-70
2024/03/30 08:54:05;;;;;;;11.13;6.30;;;;;;;10.98;100.00;99237.78;5068401;28;20071;-68
2024/03/30 08:56:52;;;;;;;11.43;6.95;;;;;;;11.02;100.00;99228.66;5111392;28;20036;-71
2024/03/30 08:59:39;;;;;;;12.82;7.18;;;;;;;11.06;100.00;99228.84;5051813;28;20044;-68
2024/03/30 09:02:31;;;;;;;11.68;7.50;;;;;;;11.11;100.00;99241.53;5075303;28;20079;-70
2024/03/30 09:05:18;;;;;;;12.45;6.53;;;;;;;11.13;100.00;99222.97;5082916;28;20492;-71
2024/03/30 09:08:05;;;;;;;11.35;6.50;;;;;;;11.17;100.00;99229.41;5077097;28;20472;-70
2024/03/30 09:10:53;;;;;;;14.48;6.90;;;;;;;11.19;100.00;99238.09;5079149;28;20389;-71
2024/03/30 09:13:40;;;;;;;11.25;6.60;;;;;;;11.21;100.00;99238.56;5078695;28;20515;-71
2024/03/30 09:16:27;;;;;;;12.05;7.00;;;;;;;11.23;100.00;99230.88;5069201;28;20063;-72
2024/03/30 09:19:14;;;;;;;17.27;7.63;;;;;;;11.23;100.00;99223.53;5084566;28;20129;-71
2024/03/30 09:22:03;;;;;;;17.40;8.52;;;;;;;11.24;100.00;99229.78;5069333;28;20104;-71
2024/03/30 09:24:51;;;;;;;20.80;7.80;;;;;;;11.24;100.00;99221.59;5085113;28;20055;-71
2024/03/30 09:27:42;;;;;;;14.85;8.18;;;;;;;11.24;100.00;99218.88;5075460;28;20040;-71
2024/03/30 09:30:29;;;;;;;20.35;8.55;;;;;;;11.22;100.00;99215.63;5083531;28;20047;-70
2024/03/30 09:33:16;;;;;;;17.25;8.07;;;;;;;11.20;100.00;99209.69;5082576;28;20105;-71
2024/03/30 09:36:11;;;;;;;14.57;7.40;;;;;;;11.21;100.00;99225.75;5066148;28;20131;-69
2024/03/30 09:38:58;;;;;;;;;;;;;;;11.23;100.00;99241.78;5052229;28;20054;-71
2024/03/30 09:41:53;;;;;;;13.65;7.20;;;;;;;11.27;100.00;99240.03;5096884;28;19923;-70
2024/03/30 09:44:41;;;;;;;17.13;7.78;;;;;;;11.31;100.00;99246.50;5069714;28;20044;-69
2024/03/30 09:47:30;;;;;;;19.48;7.63;;;;;;;11.36;100.00;99253.75;5082707;28;20040;-70
2024/03/30 09:50:17;;;;;;;15.45;7.60;;;;;;;11.40;100.00;99249.25;5066555;28;20062;-69
2024/03/30 09:53:05;;;;;;;18.38;7.88;;;;;;;11.42;100.00;99238.84;5083132;28;20102;-69
2024/03/30 09:55:55;;;;;;;16.98;7.80;;;;;;;11.44;100.00;99240.13;5068000;28;20492;-69
2024/03/30 09:58:44;;;;;;;19.00;8.20;;;;;;;11.48;100.00;99234.88;5080283;28;20533;-70
2024/03/30 10:01:31;;;;;;;16.48;7.65;;;;;;;11.50;100.00;99238.09;5094303;28;20081;-68
2024/03/30 10:04:18;;;;;;;24.15;7.88;;;;;;;11.55;100.00;99239.88;5068654;28;20126;-69
2024/03/30 10:07:14;;;;;;;23.67;9.02;;;;;;;11.56;100.00;99236.03;5067163;28;20554;-70
2024/03/30 10:10:14;;;;;;;22.10;8.88;;;;;;;11.55;100.00;99242.63;5087423;28;20044;-69
2024/03/30 10:13:07;;;;;;;26.75;9.27;;;;;;;11.55;100.00;99250.81;5062540;28;20090;-69
2024/03/30 10:15:55;;;;;;;25.90;8.85;;;;;;;11.56;100.00;99249.66;5095117;28;20457;-70
2024/03/30 10:18:44;;;;;;;27.67;8.55;;;;;;;11.57;100.00;99243.09;5083780;28;20101;-69
2024/03/30 10:21:32;;;;;;;31.38;9.02;;;;;;;11.58;100.00;99236.53;5096509;28;20051;-69
2024/03/30 10:24:19;;;;;;;32.42;8.80;;;;;;;11.60;100.00;99232.38;5081522;28;20039;-70
2024/03/30 10:27:07;;;;;;;24.17;8.50;;;;;;;11.67;100.00;99231.91;5095173;28;20588;-71
2024/03/30 10:29:54;;;;;;;21.02;6.50;;;;;;;11.75;100.00;99217.50;5090120;28;20075;-70
2024/03/30 10:32:41;;;;;;;24.77;8.63;;;;;;;11.80;100.00;99203.72;5076108;28;20048;-71
2024/03/30 10:35:29;;;;;;;30.75;8.60;;;;;;;11.84;100.00;99199.25;5062050;28;20048;-70
2024/03/30 10:38:16;;;;;;;30.40;8.50;;;;;;;11.89;100.00;99211.97;5052666;28;20048;-70
2024/03/30 10:41:06;;;;;;;29.42;8.38;;;;;;;11.93;100.00;99208.28;5049731;28;20389;-70
2024/03/30 10:43:53;;;;;;;26.42;7.72;;;;;;;11.98;100.00;99203.78;5080460;28;20095;-70
2024/03/30 10:46:40;;;;;;;28.27;7.60;;;;;;;12.02;100.00;99210.22;5071568;28;20058;-70
2024/03/30 10:49:27;;;;;;;25.33;8.05;;;;;;;12.12;100.00;99226.31;5056935;28;20086;-70
2024/03/30 10:52:14;;;;;;;21.83;7.22;;;;;;;12.13;100.00;99222.47;5085660;28;20051;-69
2024/03/30 10:55:01;;;;;;;24.70;7.05;;;;;;;12.17;100.00;99239.84;5087247;28;20058;-70
2024/03/30 10:57:52;;;;;;;31.90;8.07;;;;;;;12.20;100.00;99239.19;5069956;28;20078;-69
2024/03/30 11:00:41;;;;;;;35.65;8.40;;;;;;;12.19;100.00;99239.50;5085809;28;20040;-70
2024/03/30 11:03:31;;;;;;;37.35;7.95;;;;;;;12.20;100.00;99252.84;5081151;28;20048;-69
2024/03/30 11:06:18;;;;;;;39.33;9.25;;;;;;;12.23;100.00;99249.47;5065580;28;20052;-71
2024/03/30 11:09:07;;;;;;;44.42;9.55;;;;;;;12.26;100.00;99248.84;5070967;28;20051;-70
2024/03/30 11:11:54;;;;;;;44.78;9.10;;;;;;;12.30;100.00;99252.53;5072524;28;20139;-70
2024/03/30 11:14:42;;;;;;;41.25;8.23;;;;;;;12.35;100.00;99254.31;5064188;28;20040;-69
2024/03/30 11:17:40;;;;;;;48.95;8.43;;;;;;;12.35;100.00;99257.84;5064650;28;20075;-70
2024/03/30 11:21:17;;;;;;;32.53;7.35;;;;;;;12.39;100.00;99271.69;5051692;28;20060;-70
2024/03/30 11:24:06;;;;;;;25.80;6.35;;;;;;;12.43;100.00;99285.50;5031918;28;20055;-70
2024/03/30 11:26:58;;;;;;;29.35;6.90;;;;;;;12.52;100.00;99289.06;5069131;28;20086;-71
2024/03/30 11:30:05;;;;;;;59.90;26.58;;;;;;;12.61;100.00;99298.09;5066671;28;20072;-70
2024/03/30 11:33:08;;;;;;;76.85;34.33;;;;;;;12.66;100.00;99305.31;5064630;28;20098;-69
2024/03/30 11:36:37;;;;;;;52.08;16.52;;;;;;;12.67;100.00;99290.53;5083174;28;20457;-69
2024/03/30 11:39:43;;;;;;;42.47;11.88;;;;;;;12.71;100.00;99308.69;4969103;28;20373;-70
2024/03/30 11:42:33;;;;;;;72.35;28.27;;;;;;;12.85;100.00;99318.69;4967642;28;20078;-70
2024/03/30 11:45:23;;;;;;;43.85;13.75;;;;;;;12.89;100.00;99320.47;5091754;28;20090;-69
2024/03/30 11:48:11;;;;;;;143.55;69.63;;;;;;;13.01;100.00;99322.53;5057471;28;20160;-69
2024/03/30 11:50:58;;;;;;;176.90;84.43;;;;;;;13.14;100.00;99327.06;5084045;28;20393;-70
2024/03/30 11:53:45;;;;;;;228.65;113.70;;;;;;;13.20;100.00;99336.72;5096927;28;20100;-70
2024/03/30 11:56:33;;;;;;;236.50;111.85;;;;;;;13.35;100.00;99338.19;5070132;28;20063;-69
2024/03/30 11:59:20;;;;;;;253.55;116.95;;;;;;;13.48;100.00;99336.41;5086296;28;20039;-69
2024/03/30 12:02:13;;;;;;;254.75;119.07;;;;;;;13.53;100.00;99330.75;5084863;28;20104;-70
2024/03/30 12:05:04;;;;;;;249.27;124.57;;;;;;;13.57;100.00;99333.66;5063034;28;20043;-68
2024/03/30 12:08:03;;;;;;;120.80;58.75;;;;;;;13.50;100.00;99328.69;5078217;28;20101;-69
2024/03/30 12:10:54;;;;;;;125.55;58.47;;;;;;;13.42;100.00;99326.75;5065866;28;20052;-69
2024/03/30 12:13:43;;;;;;;105.80;49.42;;;;;;;13.38;100.00;99328.53;5078602;28;20044;-69
2024/03/30 12:16:30;;;;;;;55.63;20.48;;;;;;;13.24;100.00;99331.41;5083574;28;20048;-69
2024/03/30 12:19:17;;;;;;;129.13;63.38;;;;;;;13.30;100.00;99338.38;5077847;28;20496;-70
2024/03/30 12:22:05;;;;;;;163.05;83.22;;;;;;;13.33;100.00;99345.91;5080491;28;20051;-70
2024/03/30 12:24:52;;;;;;;75.18;34.17;;;;;;;13.35;100.00;99345.59;5051011;28;20044;-71
2024/03/30 12:27:42;;;;;;;121.30;59.70;;;;;;;13.41;100.00;99352.50;5065551;28;20103;-70
2024/03/30 12:30:29;;;;;;;137.35;74.72;;;;;;;13.43;100.00;99362.00;5081231;28;20047;-70
2024/03/30 12:33:16;;;;;;;150.45;77.80;;;;;;;13.50;100.00;99360.72;5069426;28;20051;-69
2024/03/30 12:36:03;;;;;;;99.82;49.40;;;;;;;13.48;100.00;99358.31;5071281;28;20467;-69
2024/03/30 12:38:51;;;;;;;53.30;25.55;;;;;;;13.34;100.00;99385.00;5084159;28;20062;-71
2024/03/30 12:41:38;;;;;;;135.45;65.25;;;;;;;13.40;100.00;99389.22;5097091;28;20055;-68
2024/03/30 12:44:26;;;;;;;148.68;78.85;;;;;;;13.34;100.00;99387.75;5065722;28;20048;-69
2024/03/30 12:47:13;;;;;;;90.68;43.25;;;;;;;13.29;100.00;99407.06;5091638;28;20048;-69
2024/03/30 12:50:01;;;;;;;89.32;44.00;;;;;;;13.22;100.00;99400.09;5050494;28;20408;-69
2024/03/30 12:52:50;;;;;;;48.58;22.60;;;;;;;13.17;100.00;99403.00;5077568;28;20063;-69
2024/03/30 12:55:37;;;;;;;77.97;37.40;;;;;;;13.17;100.00;99405.72;5075439;28;20492;-71
2024/03/30 12:58:24;;;;;;;77.13;34.97;;;;;;;13.26;100.00;99413.16;5063567;28;20488;-70
2024/03/30 13:01:11;;;;;;;48.90;23.38;;;;;;;13.40;100.00;99406.44;5062953;28;20039;-70